Flight Track Log - Related Links

Times and Time Zones

All times are in EDT time to prevent confusion due to time zone crossing. See the TRS111 flight status page for this flight to view local times or setup timezone preferences in your user account.

Time Position Orientation Groundspeed Altitude Reporting Facility
EDT Latitude Longitude Course Direction KTS MPH feet Rate Location/Type
Sat 02:00:23 PM 44.8167 -93.2000 150° Southeast 215 247 2,900  Level Minneapolis TRACON
Sat 02:01:30 PM 44.7692 -93.1175 129° Southeast 248 285 4,800 1,969 Climbing Minneapolis Center
Sat 02:02:31 PM 44.7275 -93.0233 122° Southeast 277 319 7,100 2,049 Climbing Minneapolis Center
Sat 02:03:33 PM 44.6597 -92.9658 149° Southeast 293 337 9,000 1,854 Climbing Minneapolis Center
Sat 02:04:34 PM 44.5758 -92.9567 176° South 297 342 10,900 1,561 Climbing Minneapolis Center
Sat 02:05:00 PM 44.3238 -92.9624 150° Southeast  Level FlightAware Approximate
Sat 02:05:36 PM 44.4844 -92.9486 176° South 328 377 12,200  Level Minneapolis Center
Sat 02:06:37 PM 44.3844 -92.9372 175° South 357 411 14,000 1,854 Climbing Minneapolis Center
Sat 02:07:39 PM 44.2814 -92.9253 175° South 368 423 16,000 1,742 Climbing Minneapolis Center
Sat 02:08:41 PM 44.1825 -92.8706 158° South 387 445 17,600 1,805 Climbing Minneapolis Center
Sat 02:09:42 PM 44.0608 -92.7869 154° Southeast 405 466 19,700 1,672 Climbing Minneapolis Center
Sat 02:10:43 PM 43.9558 -92.7158 154° Southeast 419 482 21,000 1,317 Climbing Minneapolis Center
Sat 02:11:45 PM 43.8478 -92.6408 153° Southeast 434 499 22,400 1,171 Climbing Minneapolis Center
Sat 02:12:46 PM 43.7442 -92.5914 161° South 437 503 23,400 1,073 Climbing Minneapolis Center
Sat 02:13:48 PM 43.6033 -92.5669 173° South 430 495 24,600 1,024 Climbing Minneapolis Center
Sat 02:14:49 PM 43.4831 -92.5483 174° South 438 504 25,500 927 Climbing Minneapolis Center
Sat 02:15:51 PM 43.3603 -92.5283 173° South 443 510 26,500 927 Climbing Minneapolis Center
Sat 02:16:52 PM 43.2378 -92.5078 173° South 445 512 27,400 1,065 Climbing Minneapolis Center
Sat 02:17:55 PM 43.1117 -92.4889 174° South 454 522 28,700 1,152 Climbing Minneapolis Center
Sat 02:18:57 PM 42.9653 -92.4636 173° South 454 522 29,800 1,122 Climbing Minneapolis Center
Sat 02:19:58 PM 42.8408 -92.4436 173° South 454 522 31,000 585 Climbing Minneapolis Center
Sat 02:21:00 PM 42.7186 -92.4261 174° South 452 520 31,000  Level Minneapolis Center
Sat 02:22:01 PM 42.5983 -92.4058 173° South 447 514 31,000 98 Level Minneapolis Center
Sat 02:23:03 PM 42.4842 -92.3375 156° South 454 522 31,200 488 Climbing Minneapolis Center
Sat 02:24:04 PM 42.3536 -92.2283 148° Southeast 461 531 32,000 390 Climbing Minneapolis Center
Sat 02:25:06 PM 42.2444 -92.1394 149° Southeast 463 533 32,000 244 Level Minneapolis Center
Sat 02:26:07 PM 42.1353 -92.0475 148° Southeast 463 533 32,500 488 Climbing Minneapolis Center
Sat 02:27:09 PM 42.0250 -91.9564 148° Southeast 465 535 33,000 211 Climbing Minneapolis Center
Sat 02:28:29 PM 41.8736 -91.8292 148° Southeast 466 536 33,000  Level Chicago Center
Sat 02:29:31 PM 41.7647 -91.7408 149° Southeast 462 532 33,000  Level Chicago Center
Sat 02:30:33 PM 41.6575 -91.6533 149° Southeast 461 531 33,000  Level Chicago Center
Sat 02:31:35 PM 41.5486 -91.5644 149° Southeast 460 529 33,000  Level Chicago Center
Sat 02:32:37 PM 41.4200 -91.4600 149° Southeast 459 528 33,000  Level Chicago Center
Sat 02:33:39 PM 41.3114 -91.3744 149° Southeast 459 528 33,000  Level Chicago Center
Sat 02:34:40 PM 41.2056 -91.2883 149° Southeast 461 531 33,000  Level Chicago Center
Sat 02:35:42 PM 41.0950 -91.1994 149° Southeast 462 532 33,000  Level Chicago Center
Sat 02:36:44 PM 40.9608 -91.0939 149° Southeast 468 539 33,000  Level Chicago Center
Sat 02:37:46 PM 40.8511 -91.0061 149° Southeast 468 539 33,000  Level Chicago Center
Sat 02:38:48 PM 40.7419 -90.9189 149° Southeast 465 535 33,000  Level Chicago Center
Sat 02:39:50 PM 40.6294 -90.8325 150° Southeast 466 536 33,000  Level Chicago Center
Sat 02:40:52 PM 40.5178 -90.7450 149° Southeast 466 536 33,000  Level Chicago Center
Sat 02:41:53 PM 40.4078 -90.6586 149° Southeast 466 536 33,000  Level Chicago Center
Sat 02:42:45 PM 40.2964 -90.5711 149° Southeast 466 536 33,000  Level Kansas City Center
Sat 02:43:47 PM 40.1875 -90.4858 149° Southeast 466 536 33,000  Level Kansas City Center
Sat 02:44:48 PM 40.0758 -90.4003 150° Southeast 466 536 33,000  Level Kansas City Center
Sat 02:45:50 PM 39.9650 -90.3142 149° Southeast 466 536 33,000  Level Kansas City Center
Sat 02:46:52 PM 39.8531 -90.2289 150° Southeast 466 536 33,000  Level Kansas City Center
Sat 02:47:54 PM 39.7203 -90.1281 150° Southeast 466 536 33,000  Level Kansas City Center
Sat 02:48:55 PM 39.6194 -90.0494 149° Southeast 465 535 33,000  Level Kansas City Center
Sat 02:49:57 PM 39.5078 -89.9653 150° Southeast 465 535 33,000  Level Kansas City Center
Sat 02:50:59 PM 39.3950 -89.8811 150° Southeast 465 535 33,000  Level Kansas City Center
Sat 02:52:01 PM 39.2817 -89.7944 149° Southeast 466 536 33,000  Level Kansas City Center
Sat 02:53:02 PM 39.1419 -89.6928 151° Southeast 466 536 33,000  Level Kansas City Center
Sat 02:54:04 PM 39.0289 -89.6069 149° Southeast 466 536 33,000  Level Kansas City Center
Sat 02:55:06 PM 38.9147 -89.5222 150° Southeast 469 540 33,000  Level Kansas City Center
Sat 02:56:07 PM 38.7961 -89.4367 151° Southeast 472 543 33,000  Level Kansas City Center
Sat 02:57:09 PM 38.6831 -89.3528 150° Southeast 472 543 33,000  Level Kansas City Center
Sat 02:58:11 PM 38.5731 -89.2714 150° Southeast 472 543 33,000  Level Kansas City Center
Sat 02:59:12 PM 38.4583 -89.1875 150° Southeast 472 543 33,000  Level Kansas City Center
Sat 03:00:14 PM 38.3408 -89.0694 142° Southeast 482 555 33,000  Level Kansas City Center
Sat 03:01:16 PM 38.2353 -88.9533 139° Southeast 480 552 33,000  Level Kansas City Center
Sat 03:02:18 PM 38.1358 -88.8419 139° Southeast 480 552 33,000  Level Kansas City Center
Sat 03:03:19 PM 38.0361 -88.7308 139° Southeast 480 552 33,000  Level Kansas City Center
Sat 03:04:21 PM 37.9378 -88.6169 138° Southeast 470 541 33,000  Level Kansas City Center
Sat 03:05:23 PM 37.8372 -88.5058 139° Southeast 472 543 33,000  Level Kansas City Center
Sat 03:06:24 PM 37.7367 -88.3964 139° Southeast 473 544 33,000  Level Kansas City Center
Sat 03:07:26 PM 37.6367 -88.2850 139° Southeast 476 548 33,000  Level Kansas City Center
Sat 03:08:28 PM 37.5350 -88.1744 139° Southeast 477 549 33,000  Level Kansas City Center
Sat 03:09:29 PM 37.4144 -88.0431 139° Southeast 478 550 33,000  Level Kansas City Center
Sat 03:10:33 PM 37.3058 -87.9253 139° Southeast 479 551 33,000  Level Memphis Center
Sat 03:11:35 PM 37.2050 -87.8156 139° Southeast 480 552 33,000  Level Memphis Center
Sat 03:12:37 PM 37.1031 -87.7061 139° Southeast 480 552 33,000  Level Memphis Center
Sat 03:13:38 PM 36.9953 -87.6058 143° Southeast 480 552 33,000  Level Memphis Center
Sat 03:14:40 PM 36.8894 -87.5036 142° Southeast 479 551 33,000  Level Memphis Center
Sat 03:15:42 PM 36.7825 -87.4028 143° Southeast 479 551 33,000  Level Memphis Center
Sat 03:16:43 PM 36.6761 -87.3022 143° Southeast 479 551 33,000  Level Memphis Center
Sat 03:17:45 PM 36.5700 -87.2014 143° Southeast 478 550 33,000  Level Memphis Center
Sat 03:18:47 PM 36.4464 -87.0861 143° Southeast 477 549 33,000  Level Memphis Center
Sat 03:19:49 PM 36.3403 -86.9886 143° Southeast 477 549 33,000  Level Memphis Center
Sat 03:20:51 PM 36.2447 -86.8994 143° Southeast 477 549 33,000  Level Memphis Center
Sat 03:21:52 PM 36.1292 -86.7931 143° Southeast 478 550 33,000  Level Memphis Center
Sat 03:22:54 PM 36.0233 -86.6942 143° Southeast 478 550 33,000  Level Memphis Center
Sat 03:23:56 PM 35.8978 -86.5794 143° Southeast 478 550 33,000  Level Memphis Center
Sat 03:24:58 PM 35.7914 -86.4808 143° Southeast 477 549 33,000  Level Memphis Center
Sat 03:26:00 PM 35.6850 -86.3836 143° Southeast 476 548 33,000  Level Memphis Center
Sat 03:27:02 PM 35.5792 -86.2872 143° Southeast 474 545 33,000  Level Memphis Center
Sat 03:28:04 PM 35.4633 -86.1819 143° Southeast 473 544 33,000  Level Memphis Center
Sat 03:29:05 PM 35.3583 -86.0869 144° Southeast 473 544 33,000 -244 Level Memphis Center
Sat 03:30:07 PM 35.2536 -85.9925 144° Southeast 472 543 32,500 -720 Descending Memphis Center
Sat 03:31:10 PM 35.1497 -85.8989 144° Southeast 470 541 31,500 -1,016 Descending Memphis Center
Sat 03:32:11 PM 35.0444 -85.8061 144° Southeast 470 541 30,400 -1,073 Descending Memphis Center
Sat 03:33:13 PM 34.9350 -85.7208 147° Southeast 470 541 29,300 -1,065 Descending Memphis Center
Sat 03:34:15 PM 34.8275 -85.6364 147° Southeast 466 536 28,200 -1,171 Descending Memphis Center
Sat 03:35:16 PM 34.7003 -85.5369 147° Southeast 461 531 26,900 -1,171 Descending Memphis Center
Sat 03:36:18 PM 34.5947 -85.4547 147° Southeast 456 525 25,800 -1,210 Descending Memphis Center
Sat 03:37:20 PM 34.4922 -85.3750 147° Southeast 445 512 24,400 3,224 Descending Memphis Center
Sat 03:38:32 PM 34.3683 -85.2769 147° Southeast 442 509 33,000 -2,500 Climbing Atlanta Center
Sat 03:39:32 PM 34.2708 -85.2025 148° Southeast 430 495 18,900 -8,200 Descending Atlanta Center
Sat 03:40:32 PM 34.1778 -85.1311 148° Southeast 410 472 16,600 -2,250 Descending Atlanta Center
Sat 03:41:32 PM 34.1033 -85.0397 135° Southeast 393 452 14,400 -1,400 Descending Atlanta Center
Sat 03:42:32 PM 34.0267 -84.9436 134° Southeast 388 447 13,800 -800 Descending Atlanta Center
Sat 03:43:32 PM 33.9564 -84.8553 134° Southeast 372 428 12,800 -900 Descending Atlanta Center
Sat 03:44:32 PM 33.8903 -84.7719 134° Southeast 350 403 12,000 -400 Descending Atlanta Center
Sat 03:45:32 PM 33.8281 -84.7014 137° Southeast 318 366 12,000  Level Atlanta Center
Sat 03:46:32 PM 33.7739 -84.6361 135° Southeast 287 330 12,000  Level Atlanta Center
Sat 03:47:32 PM 33.7325 -84.5633 124° Southeast 269 310 12,000 -650 Level Atlanta Center
Sat 03:48:32 PM 33.7308 -84.4758 91° East 252 290 10,700 -1,775 Descending Atlanta Center
Sat 03:49:54 PM 33.7333 -84.3500 89° East 254 292 7,800 -1,901 Descending Atlanta TRACON
Sat 03:50:54 PM 33.7333 -84.2833 90° East 223 257 6,200 -1,600 Descending Atlanta TRACON
Sat 03:51:54 PM 33.7167 -84.2167 107° East 200 230 4,600 -1,474 Descending Atlanta TRACON
Sat 03:52:48 PM 33.6833 -84.2167 180° South 183 211 3,400 -842 Descending Atlanta TRACON
Sat 03:53:48 PM 33.6500 -84.2667 231° Southwest 185 213 3,000 -500 Descending Atlanta TRACON
Sat 03:54:48 PM 33.6500 -84.3333 270° West 188 216 2,400 -700 Descending Atlanta TRACON
Sat 03:55:48 PM 33.6500 -84.3833 270° West 145 167 1,600 -800 Descending Atlanta TRACON
Sat 03:57:00 PM 33.6333 -84.4167 259° West  Level FlightAware Approximate
Sat 04:04:00 PM 33.6367 -84.4279 290° West  Level Estimated

Login

Don't have an account? Register now (free) for customized features, flight alerts, and more!